Time;durP1;ratioP1;P1;durP2;ratioP2;P2;SDS_P1;SDS_P2;PMS_P1;PMS_P2;Temp;Humidity;BMP_temperature;BMP_pressure;BME280_temperature;BME280_humidity;BME280_pressure;Samples;Min_cycle;Max_cycle;Signal;HPM_P1;HPM_P2
2024/02/16 00:00:03;;;;;;;61.15;29.70;;;;;;;7.13;100.00;97916.84;4973814;28;20052;-62
2024/02/16 00:02:28;;;;;;;65.47;30.98;;;;;;;7.13;100.00;97923.75;4975642;28;20184;-63
2024/02/16 00:04:54;;;;;;;109.85;34.13;;;;;;;7.23;100.00;97927.25;4973231;28;20421;-62
2024/02/16 00:07:19;;;;;;;53.13;26.33;;;;;;;7.23;100.00;97927.25;4974992;28;20026;-64
2024/02/16 00:09:44;;;;;;;100.57;34.08;;;;;;;7.10;100.00;97919.41;4972387;28;20509;-66
2024/02/16 00:12:10;;;;;;;82.78;30.05;;;;;;;7.09;100.00;97906.47;4974364;28;20542;-65
2024/02/16 00:14:35;;;;;;;52.15;25.38;;;;;;;7.05;100.00;97913.31;4972360;28;20521;-64
2024/02/16 00:17:00;;;;;;;68.43;27.05;;;;;;;6.99;100.00;97915.84;4973230;28;20513;-61
2024/02/16 00:19:27;;;;;;;121.95;29.65;;;;;;;6.87;100.00;97904.53;4972819;28;20048;-62
2024/02/16 00:21:53;;;;;;;103.78;28.63;;;;;;;6.85;100.00;97905.38;4974648;28;20494;-64
2024/02/16 00:24:18;;;;;;;48.80;25.10;;;;;;;6.89;100.00;97902.84;4978129;28;20035;-63
2024/02/16 00:26:45;;;;;;;96.75;28.00;;;;;;;6.87;100.00;97904.53;4977971;28;20034;-64
2024/02/16 00:29:10;;;;;;;65.47;28.75;;;;;;;6.89;100.00;97901.97;4978075;28;20596;-63
2024/02/16 00:31:36;;;;;;;63.42;27.48;;;;;;;7.08;100.00;97907.31;4974958;28;20050;-63
2024/02/16 00:34:01;;;;;;;70.78;28.65;;;;;;;7.09;100.00;97896.13;4972906;28;20763;-63
2024/02/16 00:36:27;;;;;;;66.57;28.65;;;;;;;7.02;100.00;97892.63;4976414;28;20034;-62
2024/02/16 00:38:53;;;;;;;124.00;30.98;;;;;;;7.08;100.00;97896.94;4972729;28;20022;-63
2024/02/16 00:41:22;;;;;;;62.65;28.60;;;;;;;7.05;100.00;97884.88;4975136;28;20791;-61
2024/02/16 00:43:49;;;;;;;102.85;33.30;;;;;;;7.09;100.00;97881.47;4976574;28;20027;-64
2024/02/16 00:46:14;;;;;;;89.35;32.78;;;;;;;7.15;100.00;97884.13;4973277;28;20053;-62
2024/02/16 00:48:40;;;;;;;65.60;30.17;;;;;;;7.26;100.00;97881.63;4975418;28;20023;-63
2024/02/16 00:51:05;;;;;;;58.42;28.45;;;;;;;7.34;100.00;97886.84;4971170;28;20108;-63
2024/02/16 00:53:30;;;;;;;80.88;30.42;;;;;;;7.41;100.00;97888.63;4972907;28;20715;-61
2024/02/16 00:55:56;;;;;;;100.63;31.98;;;;;;;7.52;100.00;97885.25;4970698;28;20572;-65
2024/02/16 00:58:21;;;;;;;60.30;29.67;;;;;;;7.63;100.00;97893.97;4973547;28;20034;-62
2024/02/16 01:00:46;;;;;;;115.55;32.13;;;;;;;7.67;100.00;97892.25;4970985;28;20223;-61
2024/02/16 01:03:14;;;;;;;76.57;30.60;;;;;;;7.69;100.00;97886.22;4974272;28;20041;-62
2024/02/16 01:05:42;;;;;;;74.78;29.58;;;;;;;7.66;100.00;97887.94;4972969;28;20039;-65
2024/02/16 01:08:08;;;;;;;85.30;28.13;;;;;;;7.76;100.00;97894.06;4970187;28;20022;-62
2024/02/16 01:10:33;;;;;;;89.50;36.85;;;;;;;7.73;100.00;97906.97;4973241;28;20462;-63
2024/02/16 01:12:58;;;;;;;115.78;27.92;;;;;;;7.81;100.00;97902.72;4970602;28;20081;-64
2024/02/16 01:15:24;;;;;;;79.13;26.67;;;;;;;7.85;100.00;97904.47;4966882;28;20026;-63
2024/02/16 01:17:49;;;;;;;101.53;27.33;;;;;;;7.85;100.00;97899.28;4972178;28;20338;-64
2024/02/16 01:20:15;;;;;;;79.28;25.13;;;;;;;7.83;100.00;97893.22;4972744;28;20641;-63
2024/02/16 01:22:40;;;;;;;85.78;24.90;;;;;;;7.85;100.00;97890.63;4973300;28;20049;-62
2024/02/16 01:25:08;;;;;;;67.90;26.17;;;;;;;7.88;100.00;97893.25;4972123;28;20026;-62
2024/02/16 01:27:34;;;;;;;95.50;27.58;;;;;;;7.94;100.00;97891.56;4971373;28;20513;-62
2024/02/16 01:30:00;;;;;;;115.28;29.60;;;;;;;8.03;100.00;97889.88;4972320;28;20062;-62
2024/02/16 01:32:26;;;;;;;73.60;21.38;;;;;;;7.91;100.00;97901.91;4972466;28;20615;-62
2024/02/16 01:34:51;;;;;;;127.13;27.70;;;;;;;7.96;100.00;97896.75;4972455;28;20034;-63
2024/02/16 01:37:16;;;;;;;67.65;22.05;;;;;;;8.05;100.00;97896.81;4971135;28;20042;-61
2024/02/16 01:39:42;;;;;;;64.57;22.75;;;;;;;7.86;100.00;97906.19;4970632;28;20022;-61
2024/02/16 01:42:07;;;;;;;92.00;25.70;;;;;;;7.91;100.00;97912.25;4973622;28;20038;-62
2024/02/16 01:44:33;;;;;;;67.53;22.73;;;;;;;7.66;100.00;97906.94;4976769;28;20486;-62
2024/02/16 01:46:58;;;;;;;103.60;26.65;;;;;;;7.66;100.00;97903.47;4972484;28;20042;-62
2024/02/16 01:49:23;;;;;;;104.55;26.02;;;;;;;7.56;100.00;97910.28;4972384;28;20041;-62
2024/02/16 01:51:49;;;;;;;82.95;23.67;;;;;;;7.63;100.00;97914.66;4971321;28;20038;-63
2024/02/16 01:54:17;;;;;;;67.50;22.58;;;;;;;7.69;100.00;97906.09;4972845;28;20424;-63
2024/02/16 01:56:44;;;;;;;82.45;23.75;;;;;;;7.60;100.00;97912.06;4972458;28;20042;-63
2024/02/16 01:59:09;;;;;;;73.70;23.58;;;;;;;7.69;100.00;97906.94;4972507;28;20473;-64
2024/02/16 02:01:34;;;;;;;82.07;26.10;;;;;;;7.62;100.00;97912.94;4974970;28;20506;-64
2024/02/16 02:04:00;;;;;;;135.55;29.08;;;;;;;7.69;100.00;97906.94;4968660;28;20033;-63
2024/02/16 02:06:26;;;;;;;72.43;23.60;;;;;;;7.58;100.00;97908.59;4970223;28;20488;-61
2024/02/16 02:08:51;;;;;;;130.57;29.85;;;;;;;7.50;100.00;97903.34;4968210;28;20227;-62
2024/02/16 02:11:17;;;;;;;66.53;26.63;;;;;;;7.40;100.00;97899.84;4968199;28;20026;-65
2024/02/16 02:13:42;;;;;;;86.75;35.90;;;;;;;7.28;100.00;97897.16;4967569;28;20061;-64
2024/02/16 02:16:09;;;;;;;91.90;28.02;;;;;;;7.52;100.00;97893.00;4968282;28;20042;-62
2024/02/16 02:18:35;;;;;;;71.70;28.20;;;;;;;7.59;100.00;97902.56;4974387;28;20034;-65
2024/02/16 02:21:00;;;;;;;107.93;24.38;;;;;;;7.31;100.00;97910.09;4969344;28;20085;-64
2024/02/16 02:23:25;;;;;;;90.45;28.88;;;;;;;7.03;100.00;97907.28;4966179;28;20028;-63
2024/02/16 02:25:50;;;;;;;91.30;29.02;;;;;;;7.40;100.00;97910.19;4971258;28;20030;-62
2024/02/16 02:28:16;;;;;;;69.55;28.52;;;;;;;7.29;100.00;97906.63;4973379;28;20089;-62
2024/02/16 02:30:44;;;;;;;96.75;30.20;;;;;;;7.24;100.00;97893.66;4971335;28;20058;-63
2024/02/16 02:33:11;;;;;;;77.22;27.83;;;;;;;7.30;100.00;97895.44;4971183;28;20545;-62
2024/02/16 02:35:36;;;;;;;65.30;28.67;;;;;;;7.31;100.00;97889.41;4975353;28;20038;-62
2024/02/16 02:38:02;;;;;;;120.03;32.35;;;;;;;7.36;100.00;97887.75;4972002;28;20057;-63
2024/02/16 02:40:27;;;;;;;73.25;27.48;;;;;;;7.46;100.00;97882.63;4970227;28;20059;-63
2024/02/16 02:42:53;;;;;;;99.20;29.95;;;;;;;7.51;100.00;97878.34;4969368;28;20042;-64
2024/02/16 02:45:18;;;;;;;73.30;28.77;;;;;;;7.47;100.00;97879.19;4972148;28;20249;-62
2024/02/16 02:47:44;;;;;;;67.72;26.08;;;;;;;7.55;100.00;97872.34;4977672;28;20048;-62
2024/02/16 02:50:09;;;;;;;80.82;33.40;;;;;;;7.51;100.00;97870.59;4968685;28;20041;-63
2024/02/16 02:52:34;;;;;;;72.35;28.67;;;;;;;7.54;100.00;97868.03;4971322;28;20231;-63
2024/02/16 02:55:00;;;;;;;102.95;39.80;;;;;;;7.57;100.00;97880.97;4970836;28;20089;-64
2024/02/16 02:57:25;;;;;;;81.80;28.30;;;;;;;7.68;100.00;97875.84;4972436;28;20031;-66
2024/02/16 02:59:50;;;;;;;69.32;23.83;;;;;;;7.73;100.00;97868.13;4972430;28;20235;-61
2024/02/16 03:02:16;;;;;;;65.32;26.17;;;;;;;7.63;100.00;97865.50;4969795;28;20042;-62
2024/02/16 03:04:42;;;;;;;88.30;27.80;;;;;;;7.52;100.00;97877.47;4968398;28;20018;-62
2024/02/16 03:07:08;;;;;;;104.47;26.63;;;;;;;7.68;100.00;97876.72;4972854;28;20050;-63
2024/02/16 03:09:33;;;;;;;110.20;26.40;;;;;;;7.66;100.00;97881.06;4975590;28;20121;-63
2024/02/16 03:11:58;;;;;;;140.05;28.80;;;;;;;7.54;100.00;97879.22;4972992;28;20042;-63
2024/02/16 03:14:24;;;;;;;68.85;24.98;;;;;;;7.25;100.00;97873.84;4965816;28;20034;-63
2024/02/16 03:16:49;;;;;;;76.28;25.83;;;;;;;7.31;100.00;97878.19;4972709;28;20434;-60
2024/02/16 03:19:14;;;;;;;97.13;25.75;;;;;;;7.37;100.00;97878.22;4968263;28;20025;-64
2024/02/16 03:21:39;;;;;;;61.78;24.33;;;;;;;7.48;100.00;97879.19;4973359;28;20493;-63
2024/02/16 03:24:05;;;;;;;94.13;27.73;;;;;;;7.23;100.00;97879.00;4974495;28;20030;-62
2024/02/16 03:26:32;;;;;;;92.82;26.65;;;;;;;7.23;100.00;97875.53;4972016;28;20058;-62
2024/02/16 03:28:57;;;;;;;115.00;28.10;;;;;;;7.40;100.00;97873.09;4970907;28;20299;-63
2024/02/16 03:31:24;;;;;;;70.78;23.00;;;;;;;7.57;100.00;97877.53;4968444;28;20049;-65
2024/02/16 03:33:51;;;;;;;106.47;26.15;;;;;;;7.55;100.00;97877.50;4971783;28;20050;-63
2024/02/16 03:36:17;;;;;;;66.07;22.15;;;;;;;7.56;100.00;97871.47;4969536;28;20414;-63
2024/02/16 03:38:46;;;;;;;59.55;23.10;;;;;;;7.51;100.00;97879.22;4974444;28;20023;-64
2024/02/16 03:41:17;;;;;;;91.50;25.13;;;;;;;7.37;100.00;97883.41;4969395;28;20419;-65
2024/02/16 03:43:42;;;;;;;67.57;25.00;;;;;;;7.39;100.00;97882.56;4971273;28;20026;-60
2024/02/16 03:46:08;;;;;;;125.13;26.42;;;;;;;7.54;100.00;97884.41;4971649;28;20460;-62
2024/02/16 03:48:34;;;;;;;72.43;22.90;;;;;;;7.60;100.00;97883.59;4973810;28;20113;-64
2024/02/16 03:50:59;;;;;;;116.97;25.38;;;;;;;7.67;100.00;97893.13;4968977;28;20046;-60
2024/02/16 03:53:24;;;;;;;92.32;23.20;;;;;;;7.59;100.00;97889.63;4977047;28;20248;-62
2024/02/16 03:55:50;;;;;;;70.63;25.02;;;;;;;7.35;100.00;97882.53;4971179;28;20053;-64
2024/02/16 03:58:16;;;;;;;71.63;29.77;;;;;;;7.21;100.00;97885.00;4972772;28;20089;-61
2024/02/16 04:00:42;;;;;;;92.07;24.48;;;;;;;7.32;100.00;97879.94;4970855;28;20038;-64
2024/02/16 04:03:07;;;;;;;86.93;26.38;;;;;;;7.37;100.00;97876.53;4970247;28;20379;-63
2024/02/16 04:05:34;;;;;;;66.68;24.73;;;;;;;7.49;100.00;97877.44;4969988;28;20030;-62
2024/02/16 04:08:01;;;;;;;106.10;32.20;;;;;;;7.72;100.00;97884.53;4966983;28;20303;-60
2024/02/16 04:10:28;;;;;;;72.03;23.95;;;;;;;7.71;100.00;97888.84;4972548;28;20022;-64
2024/02/16 04:12:54;;;;;;;73.82;24.48;;;;;;;7.66;100.00;97891.41;4972621;28;20018;-64
2024/02/16 04:15:19;;;;;;;67.05;20.80;;;;;;;7.54;100.00;97875.78;4970516;28;20018;-65
2024/02/16 04:17:44;;;;;;;65.38;19.73;;;;;;;7.45;100.00;97879.16;4972393;28;20370;-65
2024/02/16 04:20:11;;;;;;;123.78;25.33;;;;;;;7.46;100.00;97885.22;4963520;28;20032;-63
2024/02/16 04:22:37;;;;;;;57.65;19.92;;;;;;;7.56;100.00;97884.41;4973807;28;20602;-63
2024/02/16 04:25:04;;;;;;;101.72;23.70;;;;;;;7.48;100.00;97878.31;4969293;28;20030;-65
2024/02/16 04:27:29;;;;;;;77.47;21.65;;;;;;;7.48;100.00;97886.97;4970906;28;20047;-63
2024/02/16 04:29:55;;;;;;;58.63;22.25;;;;;;;7.35;100.00;97877.38;4973316;28;20059;-64
2024/02/16 04:32:20;;;;;;;70.38;22.23;;;;;;;7.39;100.00;97876.53;4972379;28;20147;-64
2024/02/16 04:34:46;;;;;;;97.70;24.85;;;;;;;7.36;100.00;97876.50;4973041;28;20398;-64
2024/02/16 04:37:13;;;;;;;68.85;22.85;;;;;;;7.48;100.00;97878.31;4975195;28;20300;-62
2024/02/16 04:39:38;;;;;;;98.80;25.15;;;;;;;7.52;100.00;97886.13;4972654;28;20532;-64
2024/02/16 04:42:04;;;;;;;100.75;25.67;;;;;;;7.54;100.00;97884.41;4975137;28;20076;-62
2024/02/16 04:44:29;;;;;;;58.50;21.95;;;;;;;7.59;100.00;97892.22;4971193;28;20028;-65
2024/02/16 04:46:55;;;;;;;67.43;23.70;;;;;;;7.41;100.00;97890.34;4972650;28;20118;-64
2024/02/16 04:49:21;;;;;;;79.18;24.70;;;;;;;7.58;100.00;97889.59;4975946;28;20026;-60
2024/02/16 04:51:47;;;;;;;66.28;24.20;;;;;;;7.64;100.00;97887.94;4974108;28;20041;-63
2024/02/16 04:54:13;;;;;;;75.72;25.50;;;;;;;7.30;100.00;97892.84;4974216;28;20105;-67
2024/02/16 04:56:39;;;;;;;80.50;26.08;;;;;;;7.48;100.00;97881.78;4973718;28;20026;-62
2024/02/16 04:59:04;;;;;;;81.15;24.77;;;;;;;7.54;100.00;97886.13;4973482;28;20034;-64
2024/02/16 05:01:31;;;;;;;78.38;24.17;;;;;;;7.61;100.00;97882.72;4968854;28;20043;-64
2024/02/16 05:03:58;;;;;;;84.30;26.27;;;;;;;7.58;100.00;97882.72;4974610;28;20117;-65
2024/02/16 05:06:23;;;;;;;76.00;26.63;;;;;;;7.69;100.00;97877.63;4975533;28;20034;-65
2024/02/16 05:08:50;;;;;;;95.75;24.27;;;;;;;7.72;100.00;97866.41;4972374;28;20064;-64
2024/02/16 05:11:15;;;;;;;61.75;26.75;;;;;;;7.43;100.00;97868.78;4972068;28;20057;-65
2024/02/16 05:13:42;;;;;;;65.53;27.48;;;;;;;7.77;100.00;97864.72;4972610;28;20411;-61
2024/02/16 05:16:09;;;;;;;107.78;28.30;;;;;;;7.86;100.00;97858.69;4968498;28;20610;-63
2024/02/16 05:18:34;;;;;;;64.63;26.90;;;;;;;7.99;100.00;97860.53;4976575;28;20022;-63
2024/02/16 05:20:59;;;;;;;89.30;29.45;;;;;;;8.06;100.00;97858.81;4969360;28;20043;-64
2024/02/16 05:23:25;;;;;;;80.85;27.83;;;;;;;7.94;100.00;97849.25;4971114;28;20018;-62
2024/02/16 05:25:50;;;;;;;80.07;38.28;;;;;;;7.99;100.00;97847.56;4971538;28;20035;-64
2024/02/16 05:28:15;;;;;;;68.47;25.58;;;;;;;7.91;100.00;97854.44;4970029;28;20034;-63
2024/02/16 05:30:41;;;;;;;73.15;24.05;;;;;;;7.65;100.00;97850.81;4969100;28;20030;-63
2024/02/16 05:33:06;;;;;;;63.95;23.73;;;;;;;7.78;100.00;97853.47;4971609;28;20029;-64
2024/02/16 05:35:33;;;;;;;67.43;24.25;;;;;;;7.99;100.00;97852.75;4972779;28;20076;-63
2024/02/16 05:38:06;;;;;;;96.97;25.38;;;;;;;8.03;100.00;97859.69;4973870;28;20038;-62
2024/02/16 05:40:43;;;;;;;70.97;24.65;;;;;;;8.15;100.00;97860.56;4972325;28;20603;-65
2024/02/16 05:43:09;;;;;;;100.38;24.15;;;;;;;7.95;100.00;97858.78;4978945;28;20038;-65
2024/02/16 05:45:35;;;;;;;63.17;21.17;;;;;;;7.80;100.00;97862.16;4975825;28;20046;-63
2024/02/16 05:48:00;;;;;;;72.15;23.80;;;;;;;8.03;100.00;97863.97;4972951;28;20026;-66
2024/02/16 05:50:26;;;;;;;96.50;27.30;;;;;;;8.08;100.00;97873.50;4966384;28;20020;-61
2024/02/16 05:52:51;;;;;;;88.72;26.10;;;;;;;8.12;100.00;97861.44;4976199;28;20034;-63
2024/02/16 05:55:18;;;;;;;79.47;22.60;;;;;;;8.13;100.00;97867.50;4971803;28;20018;-65
2024/02/16 05:57:44;;;;;;;70.88;23.63;;;;;;;8.19;100.00;97876.16;4973311;28;20308;-66
2024/02/16 06:00:10;;;;;;;73.15;24.25;;;;;;;8.19;100.00;97875.28;4967804;28;20022;-65
2024/02/16 06:02:36;;;;;;;77.45;24.65;;;;;;;8.15;100.00;97879.59;4970992;28;20022;-62
2024/02/16 06:05:03;;;;;;;92.97;24.15;;;;;;;8.06;100.00;97876.97;4974646;28;20060;-63
2024/02/16 06:07:29;;;;;;;68.38;25.73;;;;;;;7.90;100.00;97889.81;4974259;28;20080;-66
2024/02/16 06:09:56;;;;;;;86.55;22.15;;;;;;;7.84;100.00;97894.97;4977994;28;20170;-62
2024/02/16 06:12:21;;;;;;;58.03;24.38;;;;;;;7.87;100.00;97887.19;4976235;28;20151;-65
2024/02/16 06:14:48;;;;;;;73.57;24.20;;;;;;;7.90;100.00;97907.06;4977480;28;20684;-64
2024/02/16 06:17:14;;;;;;;101.40;25.75;;;;;;;8.09;100.00;97897.66;4974795;28;20034;-61
2024/02/16 06:19:40;;;;;;;82.35;25.30;;;;;;;8.05;100.00;97903.69;4977996;28;20023;-61
2024/02/16 06:22:06;;;;;;;80.88;25.58;;;;;;;7.90;100.00;97913.13;4974946;28;20050;-62
2024/02/16 06:24:31;;;;;;;77.03;24.33;;;;;;;7.90;100.00;97909.66;4975167;28;20176;-60
2024/02/16 06:26:57;;;;;;;83.95;25.95;;;;;;;7.89;100.00;97918.28;4974842;28;20030;-60
2024/02/16 06:29:22;;;;;;;72.10;25.40;;;;;;;7.89;100.00;97913.09;4972822;28;20052;-62
2024/02/16 06:31:48;;;;;;;97.20;30.50;;;;;;;7.81;100.00;97915.66;4975946;28;20026;-60
2024/02/16 06:34:14;;;;;;;108.80;28.80;;;;;;;7.83;100.00;97919.09;4975342;28;20403;-62
2024/02/16 06:36:40;;;;;;;69.43;28.38;;;;;;;7.81;100.00;97926.00;4971672;28;20280;-61
2024/02/16 06:39:06;;;;;;;93.97;32.78;;;;;;;7.78;100.00;97923.41;4972941;28;20473;-60
2024/02/16 06:41:31;;;;;;;75.57;29.38;;;;;;;7.85;100.00;97920.00;4979622;28;20035;-62
2024/02/16 06:43:56;;;;;;;94.65;34.10;;;;;;;7.80;100.00;97916.53;4976522;28;20030;-61
2024/02/16 06:46:22;;;;;;;94.60;29.73;;;;;;;7.86;100.00;97919.13;4974952;28;20459;-61
2024/02/16 06:48:47;;;;;;;84.47;29.80;;;;;;;7.92;100.00;97923.50;4977654;28;20041;-60
2024/02/16 06:51:12;;;;;;;97.25;30.00;;;;;;;7.69;100.00;97931.97;4976175;28;20417;-61
2024/02/16 06:53:38;;;;;;;80.20;27.02;;;;;;;7.88;100.00;97935.56;4979108;28;20321;-60
2024/02/16 06:56:03;;;;;;;92.20;27.80;;;;;;;7.56;100.00;97933.59;4973545;28;20046;-59
2024/02/16 06:58:29;;;;;;;87.32;27.92;;;;;;;7.57;100.00;97932.72;4976627;28;20038;-62
2024/02/16 07:00:55;;;;;;;95.05;29.85;;;;;;;7.81;100.00;97929.47;4973870;28;20285;-60
2024/02/16 07:03:20;;;;;;;81.63;29.80;;;;;;;8.08;100.00;97934.81;4971562;28;20485;-59
2024/02/16 07:05:45;;;;;;;88.65;30.00;;;;;;;8.32;100.00;97934.06;4974003;28;20341;-60
2024/02/16 07:08:11;;;;;;;104.68;29.60;;;;;;;8.48;100.00;97939.31;4973397;28;20414;-63
2024/02/16 07:10:36;;;;;;;59.22;27.08;;;;;;;8.64;100.00;97942.88;4971454;28;20294;-63
2024/02/16 07:13:02;;;;;;;98.05;27.55;;;;;;;8.37;100.00;97947.06;4969412;28;20745;-63
2024/02/16 07:15:27;;;;;;;64.20;25.90;;;;;;;8.30;100.00;97946.16;4973639;28;20036;-61
2024/02/16 07:17:53;;;;;;;77.85;26.52;;;;;;;8.58;100.00;97937.69;4976799;28;20424;-63
2024/02/16 07:20:19;;;;;;;101.75;27.85;;;;;;;8.42;100.00;97941.88;4973447;28;20019;-64
2024/02/16 07:22:46;;;;;;;85.07;27.45;;;;;;;8.26;100.00;97943.53;4979553;28;20580;-63
2024/02/16 07:25:12;;;;;;;87.38;24.63;;;;;;;8.05;100.00;97946.03;4969884;28;20053;-59
2024/02/16 07:27:38;;;;;;;86.55;30.50;;;;;;;8.69;100.00;97953.28;4973247;28;20020;-61
2024/02/16 07:30:04;;;;;;;72.05;25.77;;;;;;;9.06;100.00;97952.50;4972830;28;20307;-59
2024/02/16 07:32:29;;;;;;;65.55;23.73;;;;;;;9.15;100.00;97947.34;4974777;28;20042;-59
2024/02/16 07:34:55;;;;;;;96.78;23.92;;;;;;;9.37;100.00;97944.78;4974201;28;20384;-59
2024/02/16 07:37:20;;;;;;;120.25;41.50;;;;;;;9.69;100.00;97938.69;4975486;28;20124;-59
2024/02/16 07:39:45;;;;;;;64.93;23.10;;;;;;;10.18;100.00;97941.22;4975661;28;20022;-59
2024/02/16 07:42:12;;;;;;;95.88;23.70;;;;;;;10.36;100.00;97950.72;4969958;28;20348;-59
2024/02/16 07:44:38;;;;;;;69.15;23.80;;;;;;;10.14;100.00;97949.03;4973563;28;20533;-60
2024/02/16 07:47:04;;;;;;;69.90;21.90;;;;;;;10.35;100.00;97941.19;4973171;28;20084;-59
2024/02/16 07:49:29;;;;;;;125.15;24.05;;;;;;;11.69;100.00;97935.25;4973459;28;20525;-60
2024/02/16 07:51:55;;;;;;;66.18;18.88;;;;;;;14.94;100.00;97928.66;4970282;28;20038;-63
2024/02/16 07:54:20;;;;;;;73.20;20.05;;;;;;;17.56;100.00;97917.22;4969803;28;20034;-61
2024/02/16 07:56:46;;;;;;;65.35;20.00;;;;;;;18.13;100.00;97908.34;4970893;28;20328;-60
2024/02/16 07:59:11;;;;;;;65.50;16.55;;;;;;;17.29;100.00;97911.97;4971914;28;20329;-59
2024/02/16 08:01:36;;;;;;;61.20;15.75;;;;;;;16.45;100.00;97911.84;4969895;28;20480;-62
2024/02/16 08:04:02;;;;;;;80.03;16.40;;;;;;;16.53;100.00;97912.44;4971644;28;20740;-61
2024/02/16 08:06:27;;;;;;;47.30;12.75;;;;;;;18.90;100.00;97906.44;4971741;28;20323;-61
2024/02/16 08:08:53;;;;;;;65.65;12.65;;;;;;;18.38;100.00;97911.88;4974073;28;20253;-61
2024/02/16 08:11:20;;;;;;;62.83;13.30;;;;;;;17.64;100.00;97909.09;4972102;28;20042;-61
2024/02/16 08:13:45;;;;;;;45.25;11.23;;;;;;;20.55;100.00;97909.31;4971221;28;20480;-62
2024/02/16 08:16:10;;;;;;;69.90;12.70;;;;;;;21.44;97.94;97907.84;4968839;28;20108;-60
2024/02/16 08:18:36;;;;;;;38.58;10.95;;;;;;;19.60;100.00;97914.22;4973898;28;20040;-60
2024/02/16 08:21:01;;;;;;;50.90;12.25;;;;;;;18.74;100.00;97921.94;4971018;28;20498;-62
2024/02/16 08:23:27;;;;;;;63.97;13.48;;;;;;;17.87;100.00;97928.50;4972587;28;20018;-61
2024/02/16 08:25:52;;;;;;;53.13;12.63;;;;;;;17.79;100.00;97928.78;4970677;28;20042;-63
2024/02/16 08:28:18;;;;;;;65.65;12.18;;;;;;;16.96;100.00;97933.09;4970754;28;20042;-61
2024/02/16 08:30:44;;;;;;;58.85;12.60;;;;;;;16.64;100.00;97924.41;4970147;28;20347;-60
2024/02/16 08:33:10;;;;;;;52.60;11.82;;;;;;;15.53;100.00;97927.31;4971681;28;20035;-62
2024/02/16 08:35:35;;;;;;;49.58;13.75;;;;;;;16.31;100.00;97929.72;4974449;28;20647;-61
2024/02/16 08:38:01;;;;;;;75.07;17.00;;;;;;;15.67;100.00;97932.22;4975633;28;20235;-61
2024/02/16 08:40:26;;;;;;;46.47;13.00;;;;;;;15.67;100.00;97939.22;4967585;28;20189;-60
2024/02/16 08:42:51;;;;;;;44.63;13.00;;;;;;;15.78;100.00;97936.31;4968667;28;20529;-60
2024/02/16 08:45:17;;;;;;;82.63;15.65;;;;;;;15.40;100.00;97937.22;4972652;28;20057;-59
2024/02/16 08:47:43;;;;;;;43.85;12.82;;;;;;;16.42;100.00;97937.28;4969772;28;20078;-60
2024/02/16 08:50:10;;;;;;;52.10;13.07;;;;;;;16.86;100.00;97916.78;4969170;28;20053;-61
2024/02/16 08:52:35;;;;;;;61.80;13.77;;;;;;;16.48;100.00;97926.63;4973325;28;20501;-60
2024/02/16 08:55:00;;;;;;;54.33;13.65;;;;;;;16.70;100.00;97926.84;4975296;28;20514;-60
2024/02/16 08:57:26;;;;;;;45.33;12.27;;;;;;;16.95;100.00;97925.25;4973542;28;20416;-60
2024/02/16 08:59:51;;;;;;;62.35;13.48;;;;;;;16.38;100.00;97931.28;4971247;28;20549;-59
2024/02/16 09:02:16;;;;;;;71.25;13.73;;;;;;;15.64;100.00;97939.28;4973552;28;20084;-62
2024/02/16 09:04:42;;;;;;;50.83;11.98;;;;;;;15.85;100.00;97941.34;4968282;28;20129;-60
2024/02/16 09:07:07;;;;;;;54.75;11.85;;;;;;;16.41;100.00;97941.69;4971049;28;20046;-59
2024/02/16 09:09:33;;;;;;;73.82;12.50;;;;;;;15.92;100.00;97939.44;4976878;28;20041;-60
2024/02/16 09:11:58;;;;;;;51.90;12.80;;;;;;;14.89;100.00;97936.63;4974660;28;20027;-60
2024/02/16 09:14:24;;;;;;;60.83;13.00;;;;;;;15.62;100.00;97942.81;4975100;28;20030;-59
2024/02/16 09:16:52;;;;;;;47.97;12.38;;;;;;;16.15;100.00;97940.66;4979263;28;20038;-59
2024/02/16 09:19:19;;;;;;;71.05;13.30;;;;;;;17.03;100.00;97939.00;4974982;28;20053;-61
2024/02/16 09:21:45;;;;;;;35.58;11.13;;;;;;;16.12;100.00;97940.72;4974708;28;20138;-61
2024/02/16 09:24:14;;;;;;;39.35;11.55;;;;;;;16.77;100.00;97940.66;4975090;28;20026;-60
2024/02/16 09:26:39;;;;;;;59.15;12.40;;;;;;;16.52;100.00;97939.59;4974861;28;20046;-60
2024/02/16 09:29:04;;;;;;;40.25;10.93;;;;;;;15.95;100.00;97943.78;4975518;28;20038;-60
2024/02/16 09:31:30;;;;;;;43.75;11.35;;;;;;;16.21;100.00;97943.09;4974113;28;20124;-59
2024/02/16 09:33:55;;;;;;;62.30;12.90;;;;;;;16.11;100.00;97944.25;4974782;28;20026;-59
2024/02/16 09:36:23;;;;;;;47.28;11.23;;;;;;;16.72;100.00;97939.94;4979053;28;20038;-60
2024/02/16 09:38:48;;;;;;;36.13;10.82;;;;;;;17.29;100.00;97940.00;4976025;28;20026;-58
2024/02/16 09:41:15;;;;;;;65.55;13.05;;;;;;;18.07;100.00;97940.97;4976304;28;20046;-60
2024/02/16 09:43:41;;;;;;;32.58;10.35;;;;;;;18.23;100.00;97944.88;4981446;28;20728;-59
2024/02/16 09:46:08;;;;;;;41.85;11.02;;;;;;;18.11;100.00;97944.38;4980545;28;20590;-62
2024/02/16 09:48:34;;;;;;;44.42;11.23;;;;;;;18.91;100.00;97949.44;4976755;28;20031;-61
2024/02/16 09:51:00;;;;;;;41.53;10.27;;;;;;;19.08;100.00;97948.81;4977339;28;20035;-62
2024/02/16 09:53:27;;;;;;;54.45;10.35;;;;;;;17.81;100.00;97953.25;4975831;28;20037;-61
2024/02/16 09:55:53;;;;;;;51.67;10.70;;;;;;;17.38;100.00;97962.53;4977263;28;20114;-60
2024/02/16 09:58:19;;;;;;;54.55;12.23;;;;;;;17.36;100.00;97959.94;4980825;28;20029;-60
2024/02/16 10:00:52;;;;;;;44.90;12.98;;;;;;;17.55;100.00;97962.84;4979069;28;20195;-60
2024/02/16 10:03:28;;;;;;;41.75;18.02;;;;;;;15.64;100.00;97963.75;4981458;28;20057;-59
2024/02/16 10:06:15;;;;;;;60.25;14.35;;;;;;;16.19;100.00;97968.53;4977279;28;20030;-61
2024/02/16 10:08:49;;;;;;;44.75;14.15;;;;;;;15.82;100.00;97978.16;4975277;28;20026;-60
2024/02/16 10:11:15;;;;;;;69.22;17.95;;;;;;;15.80;100.00;97968.59;4972622;28;20613;-62
2024/02/16 10:13:40;;;;;;;44.75;16.27;;;;;;;15.78;100.00;97973.91;4978454;28;20021;-60
2024/02/16 10:16:11;;;;;;;58.75;29.65;;;;;;;15.36;100.00;97967.00;4976566;28;20030;-59
2024/02/16 10:18:37;;;;;;;69.03;21.60;;;;;;;15.14;100.00;97964.88;4977456;28;20053;-61
2024/02/16 10:21:03;;;;;;;47.00;16.55;;;;;;;15.30;100.00;97972.41;4976568;28;20145;-61
2024/02/16 10:23:29;;;;;;;67.53;15.07;;;;;;;15.04;100.00;97964.22;4981314;28;20413;-61
2024/02/16 10:25:55;;;;;;;54.08;14.13;;;;;;;15.12;100.00;97968.44;4979169;28;20046;-59
2024/02/16 10:28:27;;;;;;;74.22;23.33;;;;;;;14.65;100.00;97964.13;4978535;28;20037;-61
2024/02/16 10:30:57;;;;;;;68.68;14.13;;;;;;;14.62;100.00;97965.06;4976660;28;20122;-62
2024/02/16 10:33:24;;;;;;;44.90;11.15;;;;;;;15.24;100.00;97968.16;4964730;28;20034;-62
2024/02/16 10:35:51;;;;;;;39.17;10.50;;;;;;;15.65;100.00;97962.84;4981016;28;20622;-62
2024/02/16 10:38:18;;;;;;;73.47;12.35;;;;;;;15.56;100.00;97969.19;4980397;28;20564;-62
2024/02/16 10:40:44;;;;;;;38.78;9.85;;;;;;;15.66;100.00;97967.19;4983046;28;20072;-61
2024/02/16 10:43:13;;;;;;;37.05;9.32;;;;;;;16.14;100.00;97959.88;4975522;28;20037;-60
2024/02/16 10:45:40;;;;;;;34.30;8.98;;;;;;;15.94;100.00;97963.91;4976019;28;20046;-63
2024/02/16 10:48:07;;;;;;;40.42;10.50;;;;;;;15.89;100.00;97968.38;4982727;28;20065;-62
2024/02/16 10:50:34;;;;;;;48.63;10.75;;;;;;;16.18;100.00;97960.69;4971880;28;20053;-62
2024/02/16 10:53:25;;;;;;;47.53;10.07;;;;;;;16.11;100.00;97963.47;4974674;28;20500;-61
2024/02/16 10:55:50;;;;;;;64.47;12.10;;;;;;;16.39;100.00;97961.84;4973491;28;20473;-59
2024/02/16 10:58:19;;;;;;;50.20;10.75;;;;;;;16.10;100.00;97963.50;4973734;28;20494;-60
2024/02/16 11:00:55;;;;;;;38.05;9.48;;;;;;;16.37;100.00;97959.28;4975700;28;20089;-62
2024/02/16 11:03:25;;;;;;;46.17;10.43;;;;;;;16.32;100.00;97962.91;4976188;28;20497;-59
2024/02/16 11:05:51;;;;;;;41.58;10.20;;;;;;;16.21;100.00;97964.06;4974305;28;20828;-58
2024/02/16 11:08:19;;;;;;;58.42;11.10;;;;;;;16.35;100.00;97962.84;4974374;28;20117;-59